sensor_id;sensor_type;location;lat;lon;timestamp;pressure;altitude;pressure_sealevel;temperature;humidity
13612;BME280;6877;51.436;6.774;2023-04-24T00:01:26;99573.72;;;9.67;95.90
13612;BME280;6877;51.436;6.774;2023-04-24T00:03:56;99575.09;;;9.77;95.41
13612;BME280;6877;51.436;6.774;2023-04-24T00:06:26;99574.22;;;9.78;95.40
13612;BME280;6877;51.436;6.774;2023-04-24T00:09:00;99581.84;;;9.84;95.15
13612;BME280;6877;51.436;6.774;2023-04-24T00:11:31;99579.91;;;9.89;94.69
13612;BME280;6877;51.436;6.774;2023-04-24T00:13:58;99577.94;;;9.96;94.15
13612;BME280;6877;51.436;6.774;2023-04-24T00:16:24;99585.84;;;9.94;94.68
13612;BME280;6877;51.436;6.774;2023-04-24T00:18:50;99589.22;;;9.98;94.00
13612;BME280;6877;51.436;6.774;2023-04-24T00:21:23;99582.91;;;10.04;92.28
13612;BME280;6877;51.436;6.774;2023-04-24T00:23:52;99582.00;;;10.05;92.12
13612;BME280;6877;51.436;6.774;2023-04-24T00:26:19;99583.75;;;10.04;91.09
13612;BME280;6877;51.436;6.774;2023-04-24T00:28:45;99577.78;;;10.01;92.11
13612;BME280;6877;51.436;6.774;2023-04-24T00:31:12;99583.13;;;9.97;92.49
13612;BME280;6877;51.436;6.774;2023-04-24T00:33:43;99588.41;;;9.96;92.78
13612;BME280;6877;51.436;6.774;2023-04-24T00:36:14;99596.22;;;9.96;93.51
13612;BME280;6877;51.436;6.774;2023-04-24T00:38:41;99601.53;;;9.94;94.39
13612;BME280;6877;51.436;6.774;2023-04-24T00:41:12;99596.31;;;9.94;93.47
13612;BME280;6877;51.436;6.774;2023-04-24T00:43:39;99590.25;;;9.92;93.71
13612;BME280;6877;51.436;6.774;2023-04-24T00:46:05;99587.00;;;9.86;91.80
13612;BME280;6877;51.436;6.774;2023-04-24T00:48:32;99589.09;;;9.76;91.71
13612;BME280;6877;51.436;6.774;2023-04-24T00:50:58;99591.22;;;9.65;92.01
13612;BME280;6877;51.436;6.774;2023-04-24T00:53:25;99595.00;;;9.55;92.98
13612;BME280;6877;51.436;6.774;2023-04-24T00:55:51;99596.09;;;9.49;93.32
13612;BME280;6877;51.436;6.774;2023-04-24T00:58:18;99593.63;;;9.44;93.39
13612;BME280;6877;51.436;6.774;2023-04-24T01:00:45;99599.84;;;9.40;93.18
13612;BME280;6877;51.436;6.774;2023-04-24T01:03:12;99603.50;;;9.35;94.07
13612;BME280;6877;51.436;6.774;2023-04-24T01:05:40;99604.53;;;9.29;93.38
13612;BME280;6877;51.436;6.774;2023-04-24T01:08:07;99613.47;;;9.22;93.53
13612;BME280;6877;51.436;6.774;2023-04-24T01:10:34;99599.09;;;9.09;94.05
13612;BME280;6877;51.436;6.774;2023-04-24T01:13:02;99592.41;;;9.00;94.53
13612;BME280;6877;51.436;6.774;2023-04-24T01:15:29;99597.06;;;8.90;94.80
13612;BME280;6877;51.436;6.774;2023-04-24T01:18:00;99590.50;;;8.77;96.16
13612;BME280;6877;51.436;6.774;2023-04-24T01:20:27;99595.22;;;8.64;96.24
13612;BME280;6877;51.436;6.774;2023-04-24T01:22:54;99599.84;;;8.54;97.34
13612;BME280;6877;51.436;6.774;2023-04-24T01:25:27;99590.53;;;8.46;98.01
13612;BME280;6877;51.436;6.774;2023-04-24T01:27:54;99594.22;;;8.37;97.91
13612;BME280;6877;51.436;6.774;2023-04-24T01:30:26;99605.78;;;8.27;98.91
13612;BME280;6877;51.436;6.774;2023-04-24T01:32:53;99603.28;;;8.22;98.97
13612;BME280;6877;51.436;6.774;2023-04-24T01:35:20;99604.06;;;8.26;99.35
13612;BME280;6877;51.436;6.774;2023-04-24T01:37:46;99596.97;;;8.31;98.90
13612;BME280;6877;51.436;6.774;2023-04-24T01:40:13;99595.91;;;8.40;98.88
13612;BME280;6877;51.436;6.774;2023-04-24T01:42:45;99591.38;;;8.46;98.67
13612;BME280;6877;51.436;6.774;2023-04-24T01:45:16;99590.28;;;8.55;98.41
13612;BME280;6877;51.436;6.774;2023-04-24T01:47:49;99597.78;;;8.66;97.74
13612;BME280;6877;51.436;6.774;2023-04-24T01:50:15;99588.09;;;8.69;97.35
13612;BME280;6877;51.436;6.774;2023-04-24T01:52:42;99595.81;;;8.74;96.95
13612;BME280;6877;51.436;6.774;2023-04-24T01:55:09;99597.50;;;8.75;97.17
13612;BME280;6877;51.436;6.774;2023-04-24T01:57:36;99589.66;;;8.76;96.87
13612;BME280;6877;51.436;6.774;2023-04-24T02:00:03;99592.19;;;8.78;96.97
13612;BME280;6877;51.436;6.774;2023-04-24T02:02:35;99590.53;;;8.75;97.37
13612;BME280;6877;51.436;6.774;2023-04-24T02:05:02;99597.56;;;8.73;96.43
13612;BME280;6877;51.436;6.774;2023-04-24T02:07:29;99602.72;;;8.75;95.86
13612;BME280;6877;51.436;6.774;2023-04-24T02:10:00;99600.19;;;8.72;96.01
13612;BME280;6877;51.436;6.774;2023-04-24T02:12:27;99609.78;;;8.71;96.32
13612;BME280;6877;51.436;6.774;2023-04-24T02:14:53;99601.09;;;8.71;95.79
13612;BME280;6877;51.436;6.774;2023-04-24T02:17:24;99604.59;;;8.70;96.55
13612;BME280;6877;51.436;6.774;2023-04-24T02:19:51;99600.28;;;8.69;96.35
13612;BME280;6877;51.436;6.774;2023-04-24T02:22:18;99608.13;;;8.69;96.10
13612;BME280;6877;51.436;6.774;2023-04-24T02:24:49;99616.84;;;8.68;96.39
13612;BME280;6877;51.436;6.774;2023-04-24T02:27:15;99597.78;;;8.66;96.66
13612;BME280;6877;51.436;6.774;2023-04-24T02:29:42;99602.13;;;8.65;96.82
13612;BME280;6877;51.436;6.774;2023-04-24T02:32:08;99592.72;;;8.59;96.98
13612;BME280;6877;51.436;6.774;2023-04-24T02:34:43;99591.28;;;8.49;97.42
13612;BME280;6877;51.436;6.774;2023-04-24T02:37:14;99591.38;;;8.46;97.92
13612;BME280;6877;51.436;6.774;2023-04-24T02:39:40;99589.69;;;8.45;98.29
13612;BME280;6877;51.436;6.774;2023-04-24T02:42:07;99593.81;;;8.52;97.54
13612;BME280;6877;51.436;6.774;2023-04-24T02:44:34;99592.91;;;8.53;97.40
13612;BME280;6877;51.436;6.774;2023-04-24T02:47:00;99593.66;;;8.57;98.03
13612;BME280;6877;51.436;6.774;2023-04-24T02:49:26;99591.06;;;8.57;97.67
13612;BME280;6877;51.436;6.774;2023-04-24T02:51:53;99600.53;;;8.61;97.54
13612;BME280;6877;51.436;6.774;2023-04-24T02:54:24;99604.78;;;8.64;96.83
13612;BME280;6877;51.436;6.774;2023-04-24T02:56:51;99604.78;;;8.64;97.01
13612;BME280;6877;51.436;6.774;2023-04-24T02:59:17;99606.44;;;8.66;96.82
13612;BME280;6877;51.436;6.774;2023-04-24T03:01:43;99610.81;;;8.66;97.07
13612;BME280;6877;51.436;6.774;2023-04-24T03:04:10;99608.13;;;8.69;96.30
13612;BME280;6877;51.436;6.774;2023-04-24T03:06:41;99608.13;;;8.69;96.96
13612;BME280;6877;51.436;6.774;2023-04-24T03:09:07;99609.81;;;8.70;96.78
13612;BME280;6877;51.436;6.774;2023-04-24T03:11:34;99609.72;;;8.73;96.62
13612;BME280;6877;51.436;6.774;2023-04-24T03:14:00;99616.69;;;8.72;96.61
13612;BME280;6877;51.436;6.774;2023-04-24T03:16:26;99627.09;;;8.74;96.61
13612;BME280;6877;51.436;6.774;2023-04-24T03:18:58;99632.34;;;8.72;96.74
13612;BME280;6877;51.436;6.774;2023-04-24T03:21:24;99629.75;;;8.72;96.79
13612;BME280;6877;51.436;6.774;2023-04-24T03:23:55;99629.66;;;8.75;96.21
13612;BME280;6877;51.436;6.774;2023-04-24T03:26:22;99625.28;;;8.76;96.43
13612;BME280;6877;51.436;6.774;2023-04-24T03:28:48;99619.19;;;8.77;96.05
13612;BME280;6877;51.436;6.774;2023-04-24T03:31:15;99632.25;;;8.77;96.20
13612;BME280;6877;51.436;6.774;2023-04-24T03:33:41;99625.28;;;8.76;96.11
13612;BME280;6877;51.436;6.774;2023-04-24T03:36:08;99629.56;;;8.78;95.85
13612;BME280;6877;51.436;6.774;2023-04-24T03:38:34;99627.88;;;8.77;96.09
13612;BME280;6877;51.436;6.774;2023-04-24T03:41:05;99629.63;;;8.77;96.50
13612;BME280;6877;51.436;6.774;2023-04-24T03:43:37;99624.34;;;8.78;96.18
13612;BME280;6877;51.436;6.774;2023-04-24T03:46:04;99620.88;;;8.78;96.30
13612;BME280;6877;51.436;6.774;2023-04-24T03:48:31;99627.03;;;8.77;96.63
13612;BME280;6877;51.436;6.774;2023-04-24T03:50:57;99627.03;;;8.77;96.30
13612;BME280;6877;51.436;6.774;2023-04-24T03:53:23;99630.41;;;8.79;96.26
13612;BME280;6877;51.436;6.774;2023-04-24T03:55:50;99625.19;;;8.79;95.90
13612;BME280;6877;51.436;6.774;2023-04-24T03:58:16;99620.81;;;8.81;95.52
13612;BME280;6877;51.436;6.774;2023-04-24T04:00:43;99628.56;;;8.82;95.05
13612;BME280;6877;51.436;6.774;2023-04-24T04:03:10;99626.88;;;8.81;95.15
13612;BME280;6877;51.436;6.774;2023-04-24T04:05:42;99622.50;;;8.82;94.82
13612;BME280;6877;51.436;6.774;2023-04-24T04:08:13;99629.38;;;8.85;95.19
13612;BME280;6877;51.436;6.774;2023-04-24T04:10:44;99638.06;;;8.85;94.49
13612;BME280;6877;51.436;6.774;2023-04-24T04:13:16;99638.06;;;8.85;94.61
13612;BME280;6877;51.436;6.774;2023-04-24T04:15:47;99638.06;;;8.85;94.35
13612;BME280;6877;51.436;6.774;2023-04-24T04:18:13;99638.91;;;8.86;94.37
13612;BME280;6877;51.436;6.774;2023-04-24T04:20:45;99637.09;;;8.89;94.07
13612;BME280;6877;51.436;6.774;2023-04-24T04:23:11;99644.03;;;8.89;94.37
13612;BME280;6877;51.436;6.774;2023-04-24T04:25:37;99650.16;;;8.88;94.18
13612;BME280;6877;51.436;6.774;2023-04-24T04:28:04;99642.31;;;8.89;93.93
13612;BME280;6877;51.436;6.774;2023-04-24T04:30:30;99648.41;;;8.88;93.83
13612;BME280;6877;51.436;6.774;2023-04-24T04:32:58;99644.09;;;8.87;93.55
13612;BME280;6877;51.436;6.774;2023-04-24T04:35:30;99647.63;;;8.86;93.20
13612;BME280;6877;51.436;6.774;2023-04-24T04:37:56;99643.25;;;8.87;92.68
13612;BME280;6877;51.436;6.774;2023-04-24T04:40:24;99651.09;;;8.87;93.15
13612;BME280;6877;51.436;6.774;2023-04-24T04:42:51;99656.25;;;8.88;92.73
13612;BME280;6877;51.436;6.774;2023-04-24T04:45:19;99664.97;;;8.87;92.93
13612;BME280;6877;51.436;6.774;2023-04-24T04:47:51;99657.09;;;8.89;92.44
13612;BME280;6877;51.436;6.774;2023-04-24T04:50:17;99656.25;;;8.88;92.29
13612;BME280;6877;51.436;6.774;2023-04-24T04:52:45;99664.13;;;8.87;91.85
13612;BME280;6877;51.436;6.774;2023-04-24T04:55:12;99654.53;;;8.87;91.77
13612;BME280;6877;51.436;6.774;2023-04-24T04:57:39;99663.28;;;8.86;91.87
13612;BME280;6877;51.436;6.774;2023-04-24T05:00:06;99662.41;;;8.86;92.38
13612;BME280;6877;51.436;6.774;2023-04-24T05:02:33;99658.94;;;8.85;92.39
13612;BME280;6877;51.436;6.774;2023-04-24T05:05:05;99661.63;;;8.82;92.20
13612;BME280;6877;51.436;6.774;2023-04-24T05:07:32;99672.13;;;8.80;92.18
13612;BME280;6877;51.436;6.774;2023-04-24T05:09:58;99667.78;;;8.79;92.53
13612;BME280;6877;51.436;6.774;2023-04-24T05:12:30;99671.44;;;8.74;93.40
13612;BME280;6877;51.436;6.774;2023-04-24T05:14:56;99668.34;;;8.61;94.96
13612;BME280;6877;51.436;6.774;2023-04-24T05:17:22;99672.88;;;8.54;96.10
13612;BME280;6877;51.436;6.774;2023-04-24T05:19:54;99676.69;;;8.41;97.29
13612;BME280;6877;51.436;6.774;2023-04-24T05:22:25;99666.63;;;8.26;100.00
13612;BME280;6877;51.436;6.774;2023-04-24T05:24:52;99673.97;;;8.11;100.00
13612;BME280;6877;51.436;6.774;2023-04-24T05:27:24;99674.25;;;7.99;100.00
13612;BME280;6877;51.436;6.774;2023-04-24T05:29:55;99673.66;;;7.88;100.00
13612;BME280;6877;51.436;6.774;2023-04-24T05:32:27;99665.19;;;7.80;100.00
13612;BME280;6877;51.436;6.774;2023-04-24T05:34:54;99666.97;;;7.79;100.00
13612;BME280;6877;51.436;6.774;2023-04-24T05:37:25;99667.81;;;7.80;100.00
13612;BME280;6877;51.436;6.774;2023-04-24T05:39:51;99666.03;;;7.82;100.00
13612;BME280;6877;51.436;6.774;2023-04-24T05:42:18;99673.63;;;7.89;100.00
13612;BME280;6877;51.436;6.774;2023-04-24T05:44:49;99682.22;;;7.95;100.00
13612;BME280;6877;51.436;6.774;2023-04-24T05:47:15;99684.66;;;8.01;100.00
13612;BME280;6877;51.436;6.774;2023-04-24T05:49:47;99677.69;;;8.01;100.00
13612;BME280;6877;51.436;6.774;2023-04-24T05:52:14;99684.53;;;8.05;100.00
13612;BME280;6877;51.436;6.774;2023-04-24T05:54:41;99670.44;;;8.12;100.00
13612;BME280;6877;51.436;6.774;2023-04-24T05:57:12;99684.06;;;8.24;100.00
13612;BME280;6877;51.436;6.774;2023-04-24T05:59:40;99681.22;;;8.33;100.00
13612;BME280;6877;51.436;6.774;2023-04-24T06:02:07;99670.78;;;8.33;100.00
13612;BME280;6877;51.436;6.774;2023-04-24T06:04:38;99677.78;;;8.32;100.00
13612;BME280;6877;51.436;6.774;2023-04-24T06:07:04;99688.28;;;8.28;100.00
13612;BME280;6877;51.436;6.774;2023-04-24T06:09:31;99685.78;;;8.25;100.00
13612;BME280;6877;51.436;6.774;2023-04-24T06:11:57;99677.31;;;8.17;100.00
13612;BME280;6877;51.436;6.774;2023-04-24T06:14:29;99692.34;;;8.05;100.00
13612;BME280;6877;51.436;6.774;2023-04-24T06:17:00;99683.94;;;7.94;100.00
13612;BME280;6877;51.436;6.774;2023-04-24T06:19:27;99688.28;;;7.95;100.00
13612;BME280;6877;51.436;6.774;2023-04-24T06:21:53;99685.81;;;7.89;100.00
13612;BME280;6877;51.436;6.774;2023-04-24T06:24:28;99688.50;;;7.84;100.00
13612;BME280;6877;51.436;6.774;2023-04-24T06:26:54;99684.09;;;7.88;100.00
13612;BME280;6877;51.436;6.774;2023-04-24T06:29:22;99688.41;;;7.89;100.00
13612;BME280;6877;51.436;6.774;2023-04-24T06:31:49;99686.69;;;7.88;100.00
13612;BME280;6877;51.436;6.774;2023-04-24T06:34:15;99690.19;;;7.87;100.00
13612;BME280;6877;51.436;6.774;2023-04-24T06:36:41;99692.72;;;7.90;100.00
13612;BME280;6877;51.436;6.774;2023-04-24T06:39:13;99686.69;;;7.88;100.00
13612;BME280;6877;51.436;6.774;2023-04-24T06:41:39;99685.13;;;7.81;100.00
13612;BME280;6877;51.436;6.774;2023-04-24T06:44:06;99688.84;;;7.71;100.00
13612;BME280;6877;51.436;6.774;2023-04-24T06:46:37;99682.09;;;7.63;100.00
13612;BME280;6877;51.436;6.774;2023-04-24T06:49:03;99681.16;;;7.66;100.00
13612;BME280;6877;51.436;6.774;2023-04-24T06:51:35;99677.66;;;7.67;100.00
13612;BME280;6877;51.436;6.774;2023-04-24T06:54:01;99680.97;;;7.74;100.00
13612;BME280;6877;51.436;6.774;2023-04-24T06:56:28;99680.91;;;7.77;100.00
13612;BME280;6877;51.436;6.774;2023-04-24T06:58:55;99680.06;;;7.76;100.00
13612;BME280;6877;51.436;6.774;2023-04-24T07:01:26;99682.72;;;7.73;100.00
13612;BME280;6877;51.436;6.774;2023-04-24T07:03:58;99673.16;;;7.74;100.00
13612;BME280;6877;51.436;6.774;2023-04-24T07:06:30;99682.75;;;7.72;100.00
13612;BME280;6877;51.436;6.774;2023-04-24T07:08:57;99685.28;;;7.75;100.00
13612;BME280;6877;51.436;6.774;2023-04-24T07:11:30;99682.59;;;7.79;100.00
13612;BME280;6877;51.436;6.774;2023-04-24T07:13:57;99694.63;;;7.83;100.00
13612;BME280;6877;51.436;6.774;2023-04-24T07:16:24;99688.50;;;7.84;100.00
13612;BME280;6877;51.436;6.774;2023-04-24T07:18:50;99688.59;;;7.81;100.00
13612;BME280;6877;51.436;6.774;2023-04-24T07:21:17;99684.13;;;7.86;100.00
13612;BME280;6877;51.436;6.774;2023-04-24T07:23:43;99690.19;;;7.88;100.00
13612;BME280;6877;51.436;6.774;2023-04-24T07:26:10;99697.22;;;7.85;100.00
13612;BME280;6877;51.436;6.774;2023-04-24T07:28:36;99689.41;;;7.83;100.00
13612;BME280;6877;51.436;6.774;2023-04-24T07:31:08;99706.81;;;7.83;100.00
13612;BME280;6877;51.436;6.774;2023-04-24T07:33:34;99697.28;;;7.82;100.00
13612;BME280;6877;51.436;6.774;2023-04-24T07:36:02;99706.03;;;7.78;100.00
13612;BME280;6877;51.436;6.774;2023-04-24T07:38:31;99699.34;;;7.68;100.00
13612;BME280;6877;51.436;6.774;2023-04-24T07:40:58;99696.88;;;7.61;100.00
13612;BME280;6877;51.436;6.774;2023-04-24T07:43:24;99696.97;;;7.58;100.00
13612;BME280;6877;51.436;6.774;2023-04-24T07:45:56;99700.47;;;7.56;100.00
13612;BME280;6877;51.436;6.774;2023-04-24T07:48:22;99708.47;;;7.48;100.00
13612;BME280;6877;51.436;6.774;2023-04-24T07:50:48;99707.78;;;7.40;100.00
13612;BME280;6877;51.436;6.774;2023-04-24T07:53:15;99717.66;;;7.26;100.00
13612;BME280;6877;51.436;6.774;2023-04-24T07:55:41;99717.00;;;7.14;100.00
13612;BME280;6877;51.436;6.774;2023-04-24T07:58:13;99715.38;;;7.10;100.00
13612;BME280;6877;51.436;6.774;2023-04-24T08:00:39;99716.19;;;7.12;100.00
13612;BME280;6877;51.436;6.774;2023-04-24T08:03:10;99724.75;;;7.17;100.00
13612;BME280;6877;51.436;6.774;2023-04-24T08:05:43;99724.56;;;7.27;100.00
13612;BME280;6877;51.436;6.774;2023-04-24T08:08:15;99721.84;;;7.31;100.00
13612;BME280;6877;51.436;6.774;2023-04-24T08:10:41;99729.66;;;7.31;100.00
13612;BME280;6877;51.436;6.774;2023-04-24T08:13:13;99727.16;;;7.27;100.00
13612;BME280;6877;51.436;6.774;2023-04-24T08:15:44;99740.16;;;7.27;100.00
13612;BME280;6877;51.436;6.774;2023-04-24T08:18:15;99736.69;;;7.28;100.00
13612;BME280;6877;51.436;6.774;2023-04-24T08:20:42;99743.69;;;7.26;100.00
13612;BME280;6877;51.436;6.774;2023-04-24T08:23:13;99751.56;;;7.21;100.00
13612;BME280;6877;51.436;6.774;2023-04-24T08:25:40;99754.16;;;7.23;100.00
13612;BME280;6877;51.436;6.774;2023-04-24T08:28:11;99763.66;;;7.24;100.00
13612;BME280;6877;51.436;6.774;2023-04-24T08:30:42;99776.66;;;7.25;100.00
13612;BME280;6877;51.436;6.774;2023-04-24T08:33:09;99785.09;;;7.36;100.00
13612;BME280;6877;51.436;6.774;2023-04-24T08:35:36;99788.31;;;7.48;100.00
13612;BME280;6877;51.436;6.774;2023-04-24T08:38:06;99799.47;;;7.54;100.00
13612;BME280;6877;51.436;6.774;2023-04-24T08:40:37;99799.22;;;7.65;100.00
13612;BME280;6877;51.436;6.774;2023-04-24T08:43:09;99809.56;;;7.68;100.00
13612;BME280;6877;51.436;6.774;2023-04-24T08:45:37;99814.50;;;7.80;100.00
13612;BME280;6877;51.436;6.774;2023-04-24T08:48:04;99819.53;;;7.89;100.00
13612;BME280;6877;51.436;6.774;2023-04-24T08:50:32;99825.09;;;8.11;100.00
13612;BME280;6877;51.436;6.774;2023-04-24T08:53:01;99826.56;;;8.23;100.00
13612;BME280;6877;51.436;6.774;2023-04-24T08:55:29;99824.69;;;8.28;100.00
13612;BME280;6877;51.436;6.774;2023-04-24T08:57:57;99825.78;;;8.20;100.00
13612;BME280;6877;51.436;6.774;2023-04-24T09:00:24;99832.22;;;8.03;100.00
13612;BME280;6877;51.436;6.774;2023-04-24T09:02:53;99837.63;;;7.94;100.00
13612;BME280;6877;51.436;6.774;2023-04-24T09:05:21;99849.28;;;7.79;100.00
13612;BME280;6877;51.436;6.774;2023-04-24T09:07:54;99865.13;;;7.69;100.00
13612;BME280;6877;51.436;6.774;2023-04-24T09:10:22;99878.25;;;7.64;100.00
13612;BME280;6877;51.436;6.774;2023-04-24T09:12:52;99875.59;;;7.65;100.00
13612;BME280;6877;51.436;6.774;2023-04-24T09:15:20;99878.97;;;7.69;100.00
13612;BME280;6877;51.436;6.774;2023-04-24T09:17:47;99903.31;;;7.70;100.00
13612;BME280;6877;51.436;6.774;2023-04-24T09:20:19;99918.94;;;7.70;100.00
13612;BME280;6877;51.436;6.774;2023-04-24T09:22:46;99917.13;;;7.72;100.00
13612;BME280;6877;51.436;6.774;2023-04-24T09:25:15;99917.97;;;7.74;100.00
13612;BME280;6877;51.436;6.774;2023-04-24T09:27:43;99944.00;;;7.74;100.00
13612;BME280;6877;51.436;6.774;2023-04-24T09:30:11;99950.25;;;7.66;100.00
13612;BME280;6877;51.436;6.774;2023-04-24T09:32:37;99938.25;;;7.58;100.00
13612;BME280;6877;51.436;6.774;2023-04-24T09:37:46;99971.47;;;7.45;100.00
13612;BME280;6877;51.436;6.774;2023-04-24T09:40:18;99977.72;;;7.35;100.00
13612;BME280;6877;51.436;6.774;2023-04-24T09:42:50;99993.47;;;7.29;100.00
13612;BME280;6877;51.436;6.774;2023-04-24T09:45:17;99991.81;;;7.23;100.00
13612;BME280;6877;51.436;6.774;2023-04-24T09:47:52;100000.31;;;7.33;100.00
13612;BME280;6877;51.436;6.774;2023-04-24T09:50:26;100009.72;;;7.40;100.00
13612;BME280;6877;51.436;6.774;2023-04-24T09:52:58;100006.25;;;7.41;100.00
13612;BME280;6877;51.436;6.774;2023-04-24T09:55:25;100010.53;;;7.45;100.00
13612;BME280;6877;51.436;6.774;2023-04-24T09:58:01;100021.78;;;7.46;100.00
13612;BME280;6877;51.436;6.774;2023-04-24T10:00:32;100032.09;;;7.50;100.00
13612;BME280;6877;51.436;6.774;2023-04-24T10:03:03;100030.50;;;7.45;100.00
13612;BME280;6877;51.436;6.774;2023-04-24T10:05:31;100033.84;;;7.51;100.00
13612;BME280;6877;51.436;6.774;2023-04-24T10:08:10;100048.41;;;7.61;100.00
13612;BME280;6877;51.436;6.774;2023-04-24T10:10:44;100052.44;;;7.78;100.00
13612;BME280;6877;51.436;6.774;2023-04-24T10:13:13;100052.38;;;7.82;100.00
13612;BME280;6877;51.436;6.774;2023-04-24T10:15:41;100063.50;;;7.92;100.00
13612;BME280;6877;51.436;6.774;2023-04-24T10:18:09;100068.66;;;7.95;100.00
13612;BME280;6877;51.436;6.774;2023-04-24T10:20:38;100072.81;;;8.04;100.00
13612;BME280;6877;51.436;6.774;2023-04-24T10:23:05;100075.44;;;8.02;100.00
13612;BME280;6877;51.436;6.774;2023-04-24T10:25:34;100082.31;;;8.06;100.00
13612;BME280;6877;51.436;6.774;2023-04-24T10:28:06;100089.94;;;8.17;100.00
13612;BME280;6877;51.436;6.774;2023-04-24T10:30:33;100085.53;;;8.21;100.00
13612;BME280;6877;51.436;6.774;2023-04-24T10:33:04;100084.97;;;8.05;100.00
13612;BME280;6877;51.436;6.774;2023-04-24T10:35:36;100082.47;;;7.99;100.00
13612;BME280;6877;51.436;6.774;2023-04-24T10:38:08;100094.81;;;7.89;100.00
13612;BME280;6877;51.436;6.774;2023-04-24T10:40:36;100098.28;;;7.88;100.00
13612;BME280;6877;51.436;6.774;2023-04-24T10:43:07;100104.38;;;7.88;100.00
13612;BME280;6877;51.436;6.774;2023-04-24T10:45:36;100106.88;;;7.95;100.00
13612;BME280;6877;51.436;6.774;2023-04-24T10:48:08;100111.09;;;8.00;100.00
13612;BME280;6877;51.436;6.774;2023-04-24T10:50:44;100104.84;;;8.10;100.00
13612;BME280;6877;51.436;6.774;2023-04-24T10:53:16;100112.44;;;8.21;100.00
13612;BME280;6877;51.436;6.774;2023-04-24T10:55:48;100129.00;;;8.19;100.00
13612;BME280;6877;51.436;6.774;2023-04-24T10:58:16;100121.13;;;8.22;100.00
13612;BME280;6877;51.436;6.774;2023-04-24T11:00:55;100122.50;;;8.43;100.00
13612;BME280;6877;51.436;6.774;2023-04-24T11:03:25;100129.00;;;8.64;100.00
13612;BME280;6877;51.436;6.774;2023-04-24T11:05:56;100132.59;;;9.00;100.00
13612;BME280;6877;51.436;6.774;2023-04-24T11:08:26;100141.31;;;9.38;100.00
13612;BME280;6877;51.436;6.774;2023-04-24T11:10:59;100139.66;;;9.71;100.00
13612;BME280;6877;51.436;6.774;2023-04-24T11:13:27;100141.06;;;9.84;100.00
13612;BME280;6877;51.436;6.774;2023-04-24T11:19:09;100149.09;;;9.39;100.00
13612;BME280;6877;51.436;6.774;2023-04-24T11:21:46;100159.34;;;9.11;100.00
13612;BME280;6877;51.436;6.774;2023-04-24T11:24:28;100153.78;;;8.86;100.00
13612;BME280;6877;51.436;6.774;2023-04-24T11:26:56;100168.03;;;8.70;100.00
13612;BME280;6877;51.436;6.774;2023-04-24T11:29:38;100174.13;;;8.69;100.00
13612;BME280;6877;51.436;6.774;2023-04-24T11:32:19;100174.91;;;8.74;100.00
13612;BME280;6877;51.436;6.774;2023-04-24T11:37:40;100179.66;;;8.97;100.00
13612;BME280;6877;51.436;6.774;2023-04-24T11:40:10;100190.31;;;9.26;100.00
13612;BME280;6877;51.436;6.774;2023-04-24T11:42:39;100194.53;;;9.71;99.35
13612;BME280;6877;51.436;6.774;2023-04-24T11:45:17;100192.91;;;10.03;94.05
13612;BME280;6877;51.436;6.774;2023-04-24T11:47:45;100202.84;;;10.21;90.65
13612;BME280;6877;51.436;6.774;2023-04-24T11:50:15;100200.38;;;10.51;90.01
13612;BME280;6877;51.436;6.774;2023-04-24T11:52:46;100212.25;;;10.94;91.40
13612;BME280;6877;51.436;6.774;2023-04-24T11:57:48;100216.03;;;11.14;85.21
13612;BME280;6877;51.436;6.774;2023-04-24T12:00:23;100215.25;;;11.11;87.60
13612;BME280;6877;51.436;6.774;2023-04-24T12:03:11;100219.59;;;11.12;86.29
13612;BME280;6877;51.436;6.774;2023-04-24T12:05:38;100225.56;;;10.86;84.67
13612;BME280;6877;51.436;6.774;2023-04-24T12:08:05;100220.22;;;10.59;86.36
13612;BME280;6877;51.436;6.774;2023-04-24T12:10:36;100221.13;;;10.23;85.35
13612;BME280;6877;51.436;6.774;2023-04-24T12:13:09;100235.88;;;9.89;86.94
13612;BME280;6877;51.436;6.774;2023-04-24T12:15:40;100232.19;;;9.61;87.38
13612;BME280;6877;51.436;6.774;2023-04-24T12:18:12;100236.91;;;9.46;87.99
13612;BME280;6877;51.436;6.774;2023-04-24T12:20:44;100247.44;;;9.42;89.26
13612;BME280;6877;51.436;6.774;2023-04-24T12:23:10;100256.88;;;9.47;90.12
13612;BME280;6877;51.436;6.774;2023-04-24T12:25:38;100244.47;;;9.59;89.72
13612;BME280;6877;51.436;6.774;2023-04-24T12:30:34;100258.53;;;9.90;86.96
13612;BME280;6877;51.436;6.774;2023-04-24T12:33:06;100254.50;;;10.13;87.08
13612;BME280;6877;51.436;6.774;2023-04-24T12:35:33;100256.91;;;10.22;83.60
13612;BME280;6877;51.436;6.774;2023-04-24T12:38:08;100281.34;;;10.19;82.50
13612;BME280;6877;51.436;6.774;2023-04-24T12:40:35;100274.41;;;10.18;81.78
13612;BME280;6877;51.436;6.774;2023-04-24T12:43:02;100273.09;;;10.38;82.51
13612;BME280;6877;51.436;6.774;2023-04-24T12:45:38;100268.16;;;10.60;79.45
13612;BME280;6877;51.436;6.774;2023-04-24T12:48:05;100282.41;;;10.81;77.58
13612;BME280;6877;51.436;6.774;2023-04-24T12:50:37;100268.72;;;11.04;78.20
13612;BME280;6877;51.436;6.774;2023-04-24T12:53:04;100282.19;;;11.21;77.62
13612;BME280;6877;51.436;6.774;2023-04-24T12:55:32;100283.19;;;11.47;78.15
13612;BME280;6877;51.436;6.774;2023-04-24T12:57:58;100285.63;;;11.53;75.66
13612;BME280;6877;51.436;6.774;2023-04-24T13:00:25;100291.59;;;11.58;75.60
13612;BME280;6877;51.436;6.774;2023-04-24T13:02:51;100273.03;;;11.36;72.46
13612;BME280;6877;51.436;6.774;2023-04-24T13:05:23;100298.91;;;11.16;72.85
13612;BME280;6877;51.436;6.774;2023-04-24T13:07:49;100298.34;;;10.73;72.77
13612;BME280;6877;51.436;6.774;2023-04-24T13:10:16;100303.22;;;10.53;75.33
13612;BME280;6877;51.436;6.774;2023-04-24T13:12:47;100316.03;;;10.29;73.80
13612;BME280;6877;51.436;6.774;2023-04-24T13:15:13;100308.56;;;10.12;76.68
13612;BME280;6877;51.436;6.774;2023-04-24T13:17:40;100312.03;;;10.11;78.07
13612;BME280;6877;51.436;6.774;2023-04-24T13:20:07;100314.50;;;10.19;77.94
13612;BME280;6877;51.436;6.774;2023-04-24T13:22:33;100318.00;;;10.18;77.98
13612;BME280;6877;51.436;6.774;2023-04-24T13:25:05;100306.34;;;10.33;77.92
13612;BME280;6877;51.436;6.774;2023-04-24T13:27:40;100322.66;;;10.42;75.55
13612;BME280;6877;51.436;6.774;2023-04-24T13:30:07;100319.09;;;10.47;75.08
13612;BME280;6877;51.436;6.774;2023-04-24T13:32:34;100324.16;;;10.53;75.50
13612;BME280;6877;51.436;6.774;2023-04-24T13:35:01;100319.94;;;10.47;76.12